Alveringem, Belgium
Current Conditions -  °F | °C
As of 7:25 AM on Monday 26 Jan 2015 (Local Time) from EBFN Reporting Station
Broken Clouds Broken Clouds  
Wind Chill: 42°   Ceiling: 1200
Heat Index: 48°   Visibility: 6mi
Dew Point: 46°   Wind: 17mph
Humidity: 93%   Direction: 260°W
Pressure: 30.18"   Gusts: NA
Location:  51.01°N, 2.71°E
Report Text: EBFN 260625Z 26015KT 9999 FEW007 BKN012 BKN016 09/08 Q1022 GRN GRN TEMPO YLO
Loading
Personal Weather Stations






























Interactive Weather Map New forecast layout! Learn more

10-Day Weather Forecast

Advertisements
Track Severe Weather on mobile